Time;durP1;ratioP1;P1;durP2;ratioP2;P2;SDS_P1;SDS_P2;PMS_P1;PMS_P2;Temp;Humidity;BMP_temperature;BMP_pressure;BME280_temperature;BME280_humidity;BME280_pressure;Samples;Min_cycle;Max_cycle;Signal;HPM_P1;HPM_P2
2023/05/12 00:00:01;;;;;;;;;;;;;;;26.27;30.85;101278.72;4129984;28;19957;-64
2023/05/12 00:02:04;;;;;;;;;;;;;;;26.29;31.04;101279.41;4131141;28;19932;-63
2023/05/12 00:04:06;;;;;;;;;;;;;;;26.29;30.73;101278.56;4130787;28;19976;-63
2023/05/12 00:06:08;;;;;;;;;;;;;;;26.28;30.61;101275.03;4131143;28;20012;-63
2023/05/12 00:08:09;;;;;;;;;;;;;;;26.31;31.07;101284.66;4130729;28;20005;-63
2023/05/12 00:10:11;;;;;;;;;;;;;;;26.31;30.77;101273.88;4130330;28;20374;-63
2023/05/12 00:12:13;;;;;;;;;;;;;;;26.33;30.75;101277.25;4133598;28;19932;-63
2023/05/12 00:14:19;;;;;;;;;;;;;;;26.32;30.92;101278.28;4133721;28;19926;-63
2023/05/12 00:16:21;;;;;;;;;;;;;;;26.34;30.61;101281.66;4116641;28;19996;-64
2023/05/12 00:18:22;;;;;;;;;;;;;;;26.34;30.60;101276.28;4133205;28;19980;-63
2023/05/12 00:20:24;;;;;;;;;;;;;;;26.32;30.92;101270.19;4133771;28;19952;-64
2023/05/12 00:22:26;;;;;;;;;;;;;;;26.32;30.91;101272.91;4133673;28;19948;-63
2023/05/12 00:24:29;;;;;;;;;;;;;;;26.34;30.88;101278.97;4133497;28;19921;-64
2023/05/12 00:26:30;;;;;;;;;;;;;;;26.35;30.56;101279.84;4133355;28;20394;-63
2023/05/12 00:28:32;;;;;;;;;;;;;;;26.36;30.82;101276.16;4132867;28;19922;-63
2023/05/12 00:30:34;;;;;;;;;;;;;;;26.35;30.30;101277.97;4133589;28;19926;-63
2023/05/12 00:32:35;;;;;;;;;;;;;;;26.37;30.75;101275.13;4133686;28;20023;-63
2023/05/12 00:34:37;;;;;;;;;;;;;;;26.37;30.77;101286.78;4133362;28;20291;-64
2023/05/12 00:36:38;;;;;;;;;;;;;;;26.38;30.60;101279.53;4133590;28;19929;-64
2023/05/12 00:38:40;;;;;;;;;;;;;;;26.39;30.71;101279.41;4132622;28;19933;-64
2023/05/12 00:40:41;;;;;;;;;;;;;;;26.39;30.78;101281.25;4133385;28;19921;-64
2023/05/12 00:42:43;;;;;;;;;;;;;;;26.39;30.59;101282.09;4133355;28;20360;-64
2023/05/12 00:44:46;;;;;;;;;;;;;;;26.38;30.51;101283.09;4133386;28;19921;-64
2023/05/12 00:46:47;;;;;;;;;;;;;;;26.39;30.73;101283.94;4133348;28;19929;-64
2023/05/12 00:48:49;;;;;;;;;;;;;;;26.37;30.76;101278.69;4132474;28;20379;-64
2023/05/12 00:50:51;;;;;;;;;;;;;;;26.39;30.46;101279.41;4133346;28;19926;-64
2023/05/12 00:52:52;;;;;;;;;;;;;;;26.40;30.65;101281.09;4133245;28;19922;-60
2023/05/12 00:54:54;;;;;;;;;;;;;;;26.41;30.65;101276.56;4133214;28;19928;-63
2023/05/12 00:56:56;;;;;;;;;;;;;;;26.42;30.40;101276.41;4133055;28;20272;-64
2023/05/12 00:58:57;;;;;;;;;;;;;;;26.44;30.34;101270.84;4132315;28;19928;-63
2023/05/12 01:00:59;;;;;;;;;;;;;;;26.45;30.58;101276.13;4133046;28;20041;-64
2023/05/12 01:03:01;;;;;;;;;;;;;;;26.42;30.24;101279.09;4133345;28;19932;-63
2023/05/12 01:05:03;;;;;;;;;;;;;;;26.43;30.53;101269.19;4133390;28;20291;-62
2023/05/12 01:07:13;;;;;;;;;;;;;;;26.43;30.34;101271.88;4133259;28;20024;-64
2023/05/12 01:09:15;;;;;;;;;;;;;;;26.43;30.53;101275.41;4132022;28;19988;-64
2023/05/12 01:11:16;;;;;;;;;;;;;;;26.44;30.47;101270.84;4132667;28;20020;-64
2023/05/12 01:13:18;;;;;;;;;;;;;;;26.44;30.46;101273.56;4132892;28;19922;-64
2023/05/12 01:15:19;;;;;;;;;;;;;;;26.45;30.50;101272.56;4132982;28;19922;-64
2023/05/12 01:17:26;;;;;;;;;;;;;;;26.45;30.62;101272.56;4133014;28;19925;-63
2023/05/12 01:19:42;;;;;;;;;;;;;;;26.45;30.17;101270.75;4131908;28;19964;-64
2023/05/12 01:21:44;;;;;;;;;;;;;;;26.46;30.43;101277.81;4132882;28;19922;-64
2023/05/12 01:23:48;;;;;;;;;;;;;;;26.47;30.35;101267.88;4132618;28;20012;-64
2023/05/12 01:25:50;;;;;;;;;;;;;;;26.47;30.46;101278.69;4132270;28;20331;-62
2023/05/12 01:27:52;;;;;;;;;;;;;;;26.49;30.48;101278.53;4132845;28;20303;-63
2023/05/12 01:29:55;;;;;;;;;;;;;;;26.48;30.07;101269.59;4131784;28;19980;-63
2023/05/12 01:31:57;;;;;;;;;;;;;;;26.49;30.48;101274.00;4132616;28;20012;-63
2023/05/12 01:33:59;;;;;;;;;;;;;;;26.46;30.23;101264.31;4132482;28;20356;-64
2023/05/12 01:36:01;;;;;;;;;;;;;;;26.46;30.27;101272.41;4132758;28;19988;-64
2023/05/12 01:38:03;;;;;;;;;;;;;;;26.46;30.09;101277.81;4132917;28;20016;-63
2023/05/12 01:40:05;;;;;;;;;;;;;;;26.48;30.42;101280.38;4131203;28;19929;-64
2023/05/12 01:42:09;;;;;;;;;;;;;;;26.49;30.03;101279.38;4132370;28;19969;-63
2023/05/12 01:44:10;;;;;;;;;;;;;;;26.50;30.10;101283.75;4132647;28;19957;-63
2023/05/12 01:46:12;;;;;;;;;;;;;;;26.51;30.30;101282.78;4132644;28;20298;-64
2023/05/12 01:48:13;;;;;;;;;;;;;;;26.50;30.26;101281.06;4132372;28;20304;-64
2023/05/12 01:50:15;;;;;;;;;;;;;;;26.50;30.36;101280.22;4131431;28;19964;-62
2023/05/12 01:52:17;;;;;;;;;;;;;;;26.49;30.28;101279.38;4132355;28;19976;-63
2023/05/12 01:54:18;;;;;;;;;;;;;;;26.51;30.30;101268.44;4131944;28;19922;-62
2023/05/12 01:56:20;;;;;;;;;;;;;;;26.50;30.36;101278.38;4132201;28;19967;-63
2023/05/12 01:58:22;;;;;;;;;;;;;;;26.49;30.30;101279.38;4132185;28;19932;-63
2023/05/12 02:00:23;;;;;;;;;;;;;;;26.51;30.34;101271.13;4131223;28;20016;-62
2023/05/12 02:02:25;;;;;;;;;;;;;;;26.51;30.43;101274.69;4132280;28;19932;-63
2023/05/12 02:04:27;;;;;;;;;;;;;;;26.51;30.29;101274.69;4115263;28;20277;-63
2023/05/12 02:06:28;;;;;;;;;;;;;;;26.51;30.17;101274.69;4132025;28;19929;-63
2023/05/12 02:08:30;;;;;;;;;;;;;;;26.52;30.12;101276.38;4131621;28;19922;-65
2023/05/12 02:10:31;;;;;;;;;;;;;;;26.52;30.27;101276.38;4131216;28;19922;-63
2023/05/12 02:12:33;;;;;;;;;;;;;;;26.53;30.15;101275.38;4132111;28;19922;-63
2023/05/12 02:14:34;;;;;;;;;;;;;;;26.54;30.36;101277.09;4131886;28;20280;-63
2023/05/12 02:16:36;;;;;;;;;;;;;;;26.55;30.14;101273.41;4132050;28;19969;-63
2023/05/12 02:18:38;;;;;;;;;;;;;;;26.56;30.02;101272.41;4131382;28;19922;-64
2023/05/12 02:20:39;;;;;;;;;;;;;;;26.56;30.07;101272.41;4131685;28;19957;-62
2023/05/12 02:22:41;;;;;;;;;;;;;;;26.55;30.14;101273.41;4131578;28;19973;-62
2023/05/12 02:24:42;;;;;;;;;;;;;;;26.46;30.15;101256.22;4131903;28;19932;-63
2023/05/12 02:26:44;;;;;;;;;;;;;;;26.56;30.29;101277.81;4132098;28;19988;-62
2023/05/12 02:28:45;;;;;;;;;;;;;;;26.55;30.40;101276.09;4131017;28;19972;-63
2023/05/12 02:30:48;;;;;;;;;;;;;;;26.56;30.22;101268.84;4131895;28;19928;-62
2023/05/12 02:32:49;;;;;;;;;;;;;;;26.56;30.29;101264.31;4131529;28;19921;-63
2023/05/12 02:34:51;;;;;;;;;;;;;;;26.57;30.33;101265.16;4131270;28;19957;-63
2023/05/12 02:36:53;;;;;;;;;;;;;;;26.55;30.35;101265.31;4131724;28;19932;-62
2023/05/12 02:38:54;;;;;;;;;;;;;;;26.56;30.02;101266.16;4130584;28;19971;-62
2023/05/12 02:40:56;;;;;;;;;;;;;;;26.55;30.30;101265.31;4131495;28;19926;-62
2023/05/12 02:42:57;;;;;;;;;;;;;;;26.55;30.26;101264.44;4131942;28;19929;-64
2023/05/12 02:44:59;;;;;;;;;;;;;;;26.57;30.36;101259.75;4131583;28;20387;-64
2023/05/12 02:47:00;;;;;;;;;;;;;;;26.56;30.33;101258.94;4131746;28;19929;-64
2023/05/12 02:49:02;;;;;;;;;;;;;;;26.55;30.31;101259.06;4129386;28;20308;-63
2023/05/12 02:51:03;;;;;;;;;;;;;;;26.56;29.93;101264.31;4131629;28;19976;-63
2023/05/12 02:53:05;;;;;;;;;;;;;;;26.57;30.45;101262.47;4131143;28;19922;-64
2023/05/12 02:55:07;;;;;;;;;;;;;;;26.56;30.34;101263.44;4131729;28;19922;-61
2023/05/12 02:57:10;;;;;;;;;;;;;;;26.57;30.06;101266.00;4131507;28;20009;-63
2023/05/12 02:59:11;;;;;;;;;;;;;;;26.58;30.34;101273.09;4130479;28;20388;-63
2023/05/12 03:01:13;;;;;;;;;;;;;;;26.58;30.30;101265.00;4130226;28;20008;-63
2023/05/12 03:03:15;;;;;;;;;;;;;;;26.59;30.03;101261.31;4131324;28;19995;-64
2023/05/12 03:05:16;;;;;;;;;;;;;;;26.61;30.30;101266.56;4131409;28;19976;-63
2023/05/12 03:07:18;;;;;;;;;;;;;;;26.60;30.22;101265.72;4131379;28;19968;-63
2023/05/12 03:09:19;;;;;;;;;;;;;;;26.58;30.13;101266.88;4130347;28;19928;-62
2023/05/12 03:11:21;;;;;;;;;;;;;;;26.59;29.87;101273.97;4131273;28;19926;-62
2023/05/12 03:13:23;;;;;;;;;;;;;;;26.59;30.36;101269.41;4131505;28;19965;-63
2023/05/12 03:15:24;;;;;;;;;;;;;;;26.59;30.18;101266.72;4131253;28;20053;-63
2023/05/12 03:17:26;;;;;;;;;;;;;;;26.60;29.94;101256.78;4131265;28;19922;-63
2023/05/12 03:19:27;;;;;;;;;;;;;;;26.61;30.16;101264.72;4130191;28;19928;-63
2023/05/12 03:21:29;;;;;;;;;;;;;;;26.62;30.16;101265.56;4130782;28;19921;-62
2023/05/12 03:23:30;;;;;;;;;;;;;;;26.61;30.17;101263.84;4131371;28;19977;-63
2023/05/12 03:25:33;;;;;;;;;;;;;;;26.62;30.33;101265.56;4131270;28;19933;-63
2023/05/12 03:27:35;;;;;;;;;;;;;;;26.60;30.27;101263.03;4131518;28;19929;-62
2023/05/12 03:29:36;;;;;;;;;;;;;;;26.61;30.41;101269.25;4130361;28;19968;-63
2023/05/12 03:31:38;;;;;;;;;;;;;;;26.61;29.91;101262.03;4131373;28;19921;-63
2023/05/12 03:33:39;;;;;;;;;;;;;;;26.61;30.36;101261.16;4131208;28;20000;-63
2023/05/12 03:35:41;;;;;;;;;;;;;;;26.60;30.38;101263.03;4130809;28;19922;-62
2023/05/12 03:37:42;;;;;;;;;;;;;;;26.61;29.98;101267.44;4131146;28;19929;-62
2023/05/12 03:39:44;;;;;;;;;;;;;;;26.61;30.30;101259.34;4130374;28;20009;-63
2023/05/12 03:41:45;;;;;;;;;;;;;;;26.62;30.12;101260.16;4131152;28;19921;-63
2023/05/12 03:43:47;;;;;;;;;;;;;;;26.63;30.27;101264.56;4131295;28;20315;-62
2023/05/12 03:45:48;;;;;;;;;;;;;;;26.61;30.21;101262.03;4132298;28;19921;-63
2023/05/12 03:47:50;;;;;;;;;;;;;;;26.63;30.25;101264.56;4134606;28;19922;-63
2023/05/12 03:49:52;;;;;;;;;;;;;;;26.65;30.21;101262.59;4132857;28;19928;-63
2023/05/12 03:51:54;;;;;;;;;;;;;;;26.65;29.95;101265.28;4134337;28;20025;-62
2023/05/12 03:53:55;;;;;;;;;;;;;;;26.63;30.11;101261.88;4134323;28;19921;-62
2023/05/12 03:55:56;;;;;;;;;;;;;;;26.62;30.33;101265.56;4134172;28;19921;-63
2023/05/12 03:57:58;;;;;;;;;;;;;;;26.62;30.16;101257.47;4134320;28;19921;-63
2023/05/12 04:00:00;;;;;;;;;;;;;;;26.62;30.20;101266.44;4133289;28;19960;-62
2023/05/12 04:02:01;;;;;;;;;;;;;;;26.63;30.34;101268.09;4134184;28;19922;-63
2023/05/12 04:04:03;;;;;;;;;;;;;;;26.63;30.29;101269.97;4133944;28;19926;-62
2023/05/12 04:06:05;;;;;;;;;;;;;;;26.64;30.02;101271.69;4134190;28;19929;-63
2023/05/12 04:08:06;;;;;;;;;;;;;;;26.66;30.20;101271.50;4134045;28;19957;-61
2023/05/12 04:10:08;;;;;;;;;;;;;;;26.65;29.96;101270.69;4131620;28;19945;-62
2023/05/12 04:12:10;;;;;;;;;;;;;;;26.66;30.20;101275.09;4134220;28;20387;-62
2023/05/12 04:14:11;;;;;;;;;;;;;;;26.65;30.15;101269.81;4133940;28;19925;-62
2023/05/12 04:16:13;;;;;;;;;;;;;;;26.65;30.19;101273.38;4133978;28;20403;-62
2023/05/12 04:18:15;;;;;;;;;;;;;;;26.65;30.25;101267.13;4134031;28;19921;-63
2023/05/12 04:20:16;;;;;;;;;;;;;;;26.64;29.85;101268.97;4132533;28;20399;-62
2023/05/12 04:22:18;;;;;;;;;;;;;;;26.66;29.96;101263.44;4134029;28;19977;-62
2023/05/12 04:24:20;;;;;;;;;;;;;;;26.65;29.81;101261.72;4133442;28;19928;-63
2023/05/12 04:26:21;;;;;;;;;;;;;;;26.65;29.87;101267.13;4133743;28;19928;-62
2023/05/12 04:28:23;;;;;;;;;;;;;;;26.65;29.84;101269.81;4133892;28;19925;-61
2023/05/12 04:30:24;;;;;;;;;;;;;;;26.63;29.78;101265.41;4115305;28;20367;-63
2023/05/12 04:32:26;;;;;;;;;;;;;;;26.66;29.90;101271.50;4133815;28;19922;-63
2023/05/12 04:34:27;;;;;;;;;;;;;;;26.65;29.99;101273.38;4133278;28;20327;-61
2023/05/12 04:36:29;;;;;;;;;;;;;;;26.67;30.17;101275.91;4133548;28;19922;-61
2023/05/12 04:38:31;;;;;;;;;;;;;;;26.67;29.91;101273.22;4133594;28;19992;-61
2023/05/12 04:40:32;;;;;;;;;;;;;;;26.67;29.92;101284.00;4132470;28;19922;-61
2023/05/12 04:42:35;;;;;;;;;;;;;;;26.68;29.73;101272.22;4133438;28;20338;-63
2023/05/12 04:44:37;;;;;;;;;;;;;;;26.68;29.86;101280.31;4133452;28;19960;-63
2023/05/12 04:46:38;;;;;;;;;;;;;;;26.66;29.60;101279.63;4133514;28;19922;-63
2023/05/12 04:48:42;;;;;;;;;;;;;;;26.68;29.81;101285.72;4133070;28;20016;-63
2023/05/12 04:50:43;;;;;;;;;;;;;;;26.67;29.57;101278.63;4131074;28;19934;-63
2023/05/12 04:52:45;;;;;;;;;;;;;;;26.66;29.63;101276.91;4133400;28;19921;-63
2023/05/12 04:54:46;;;;;;;;;;;;;;;26.66;29.50;101282.31;4132110;28;19961;-62
2023/05/12 04:56:48;;;;;;;;;;;;;;;26.67;29.73;101284.84;4133020;28;20112;-63
2023/05/12 04:58:52;;;;;;;;;;;;;;;26.66;29.36;101287.72;4133518;28;19928;-62
2023/05/12 05:00:54;;;;;;;;;;;;;;;26.66;29.50;101283.19;4132466;28;19926;-62
2023/05/12 05:02:55;;;;;;;;;;;;;;;26.67;29.76;101289.41;4132797;28;20409;-62
2023/05/12 05:04:57;;;;;;;;;;;;;;;26.67;29.69;101292.09;4132132;28;20008;-62
2023/05/12 05:06:58;;;;;;;;;;;;;;;26.68;29.31;101288.41;4133294;28;20396;-62
2023/05/12 05:09:00;;;;;;;;;;;;;;;26.67;29.28;101292.94;4133085;28;19945;-61
2023/05/12 05:11:02;;;;;;;;;;;;;;;26.66;29.38;101293.09;4131946;28;19922;-62
2023/05/12 05:13:03;;;;;;;;;;;;;;;26.67;29.58;101295.66;4133239;28;19978;-62
2023/05/12 05:15:05;;;;;;;;;;;;;;;26.66;29.39;101296.66;4132930;28;20343;-62
2023/05/12 05:17:07;;;;;;;;;;;;;;;26.66;29.42;101293.97;4132747;28;20008;-62
2023/05/12 05:19:08;;;;;;;;;;;;;;;26.67;29.48;101295.66;4131734;28;19922;-61
2023/05/12 05:21:22;;;;;;;;;;;;;;;26.68;29.55;101297.34;4132839;28;20372;-63
2023/05/12 05:23:24;;;;;;;;;;;;;;;26.68;29.49;101300.03;4132850;28;20005;-62
2023/05/12 05:25:26;;;;;;;;;;;;;;;26.68;29.08;101308.16;4132775;28;19944;-63
2023/05/12 05:27:28;;;;;;;;;;;;;;;26.70;29.36;101302.63;4132923;28;19921;-63
2023/05/12 05:29:30;;;;;;;;;;;;;;;26.69;29.25;101311.72;4131911;28;19925;-63
2023/05/12 05:31:31;;;;;;;;;;;;;;;26.68;29.38;101302.75;4132429;28;19984;-63
2023/05/12 05:33:33;;;;;;;;;;;;;;;26.70;29.14;101305.31;4132588;28;20418;-62
2023/05/12 05:35:34;;;;;;;;;;;;;;;26.68;28.96;101297.34;4132880;28;19925;-62
2023/05/12 05:37:36;;;;;;;;;;;;;;;26.69;29.13;101309.00;4132951;28;19922;-63
2023/05/12 05:39:37;;;;;;;;;;;;;;;26.68;29.12;101307.31;4131725;28;20404;-62
2023/05/12 05:41:39;;;;;;;;;;;;;;;26.69;29.03;101306.31;4132686;28;19968;-63
2023/05/12 05:43:40;;;;;;;;;;;;;;;26.69;29.33;101306.31;4132739;28;20004;-64
2023/05/12 05:45:42;;;;;;;;;;;;;;;26.70;29.04;101305.31;4132262;28;19926;-64
2023/05/12 05:47:43;;;;;;;;;;;;;;;26.70;29.09;101302.63;4132503;28;20025;-63
2023/05/12 05:49:45;;;;;;;;;;;;;;;26.70;29.22;101310.72;4131412;28;19932;-64
2023/05/12 05:51:46;;;;;;;;;;;;;;;26.71;29.04;101305.16;4132277;28;19945;-64
2023/05/12 05:53:48;;;;;;;;;;;;;;;26.70;29.25;101316.94;4132507;28;19926;-63
2023/05/12 05:55:50;;;;;;;;;;;;;;;26.70;29.14;101308.03;4132166;28;20387;-63
2023/05/12 05:57:51;;;;;;;;;;;;;;;26.70;28.94;101313.41;4132206;28;20307;-62
2023/05/12 05:59:53;;;;;;;;;;;;;;;26.69;29.33;101301.75;4131185;28;20376;-64
2023/05/12 06:01:54;;;;;;;;;;;;;;;26.67;29.05;101311.84;4132235;28;19932;-63
2023/05/12 06:03:56;;;;;;;;;;;;;;;26.69;29.28;101315.25;4132320;28;19976;-64
2023/05/12 06:05:58;;;;;;;;;;;;;;;26.69;28.93;101314.41;4132073;28;20288;-63
2023/05/12 06:07:59;;;;;;;;;;;;;;;26.71;28.95;101315.09;4131736;28;20363;-63
2023/05/12 06:10:01;;;;;;;;;;;;;;;26.71;29.23;101310.56;4131355;28;19968;-63
2023/05/12 06:12:03;;;;;;;;;;;;;;;26.71;29.25;101315.09;4132237;28;19936;-64
2023/05/12 06:14:04;;;;;;;;;;;;;;;26.73;29.16;101313.09;4132010;28;20256;-63
2023/05/12 06:16:06;;;;;;;;;;;;;;;26.72;28.84;101317.66;4131596;28;19925;-64
2023/05/12 06:18:08;;;;;;;;;;;;;;;26.71;29.18;101313.25;4114569;28;19957;-62
2023/05/12 06:20:12;;;;;;;;;;;;;;;26.72;29.13;101314.09;4130847;28;19946;-63
2023/05/12 06:22:13;;;;;;;;;;;;;;;26.72;28.88;101314.09;4132059;28;19922;-62
2023/05/12 06:24:15;;;;;;;;;;;;;;;26.72;29.04;101306.00;4131724;28;19930;-64
2023/05/12 06:26:16;;;;;;;;;;;;;;;26.72;28.97;101314.97;4131810;28;19922;-63
2023/05/12 06:28:18;;;;;;;;;;;;;;;26.73;28.79;101316.66;4131785;28;19939;-63
2023/05/12 06:30:19;;;;;;;;;;;;;;;26.74;28.94;101314.81;4130508;28;19960;-63
2023/05/12 06:32:21;;;;;;;;;;;;;;;26.74;28.89;101312.94;4132271;28;20392;-62
2023/05/12 06:34:23;;;;;;;;;;;;;;;26.76;29.06;101315.56;4131833;28;19933;-63
2023/05/12 06:36:24;;;;;;;;;;;;;;;26.76;29.10;101318.25;4131866;28;19948;-64
2023/05/12 06:38:25;;;;;;;;;;;;;;;26.77;29.04;101317.25;4131567;28;19968;-62
2023/05/12 06:40:27;;;;;;;;;;;;;;;26.77;29.10;101311.88;4130687;28;20434;-63
2023/05/12 06:42:29;;;;;;;;;;;;;;;26.77;29.04;101320.81;4131736;28;19921;-63
2023/05/12 06:44:30;;;;;;;;;;;;;;;26.77;29.07;101318.09;4131466;28;20406;-62
2023/05/12 06:46:32;;;;;;;;;;;;;;;26.76;28.77;101320.97;4131806;28;19922;-62
2023/05/12 06:48:34;;;;;;;;;;;;;;;26.74;29.10;101321.03;4131748;28;20358;-62
2023/05/12 06:50:35;;;;;;;;;;;;;;;26.75;29.13;101321.94;4130366;28;19925;-61
2023/05/12 06:52:37;;;;;;;;;;;;;;;26.76;29.02;101323.66;4131666;28;19976;-61
2023/05/12 06:54:39;;;;;;;;;;;;;;;26.76;28.92;101321.78;4131351;28;19989;-62
2023/05/12 06:56:40;;;;;;;;;;;;;;;26.78;29.01;101322.50;4131657;28;19928;-61
2023/05/12 06:58:42;;;;;;;;;;;;;;;26.79;28.94;101328.75;4131188;28;19928;-62
2023/05/12 07:00:43;;;;;;;;;;;;;;;26.78;28.86;101327.91;4123461;28;19926;-62
2023/05/12 07:02:45;;;;;;;;;;;;;;;26.80;29.04;101322.34;4115554;28;19930;-61
2023/05/12 07:04:46;;;;;;;;;;;;;;;26.80;29.00;101321.50;4113731;28;19953;-65
2023/05/12 07:06:48;;;;;;;;;;;;;;;26.82;29.78;101320.38;4110889;28;19926;-65
2023/05/12 07:08:49;;;;;;;;;;;;;;;26.75;29.35;101328.19;4117370;28;19922;-59
2023/05/12 07:10:51;;;;;;;;;;;;;;;26.78;29.13;101318.94;4121850;28;19929;-63
2023/05/12 07:12:52;;;;;;;;;;;;;;;26.84;28.90;101321.03;4125132;28;19976;-65
2023/05/12 07:14:54;;;;;;;;;;;;;;;26.85;28.89;101316.53;4116650;28;19976;-68
2023/05/12 07:16:55;;;;;;;;;;;;;;;26.76;29.06;101320.97;4125475;28;19932;-74
2023/05/12 07:18:57;;;;;;;;;;;;;;;26.81;28.58;101320.53;4130474;28;19921;-67
2023/05/12 07:20:58;;;;;;;;;;;;;;;26.78;28.60;101313.53;4127342;28;19956;-71
2023/05/12 07:23:00;;;;;;;;;;;;;;;26.77;28.23;101315.41;4120483;28;20366;-66
2023/05/12 07:25:01;;;;;;;;;;;;;;;26.77;28.30;101322.66;4118949;28;19922;-64
2023/05/12 07:27:03;;;;;;;;;;;;;;;26.75;28.29;101313.84;4124407;28;20240;-67
2023/05/12 07:29:06;;;;;;;;;;;;;;;26.69;28.57;101315.25;4130744;28;19980;-72
2023/05/12 07:31:07;;;;;;;;;;;;;;;26.67;28.49;101311.84;4123749;28;20303;-71
2023/05/12 07:33:09;;;;;;;;;;;;;;;26.67;28.80;101311.84;4130057;28;19921;-70
2023/05/12 07:35:11;;;;;;;;;;;;;;;26.64;28.45;101320.25;4123165;28;19926;-67
2023/05/12 07:37:12;;;;;;;;;;;;;;;26.61;28.58;101315.13;4122379;28;20430;-70
2023/05/12 07:39:18;;;;;;;;;;;;;;;26.58;28.65;101312.72;4129884;28;19972;-70
2023/05/12 07:41:20;;;;;;;;;;;;;;;26.53;28.39;101309.63;4121598;28;19968;-67
2023/05/12 07:43:21;;;;;;;;;;;;;;;26.51;28.48;101308.91;4128506;28;19922;-69
2023/05/12 07:45:24;;;;;;;;;;;;;;;26.48;28.67;101310.06;4129054;28;19921;-71
2023/05/12 07:47:27;;;;;;;;;;;;;;;26.45;28.82;101308.50;4123081;28;19929;-72
2023/05/12 07:49:29;;;;;;;;;;;;;;;26.46;28.63;101309.34;4118426;28;19977;-76
2023/05/12 07:51:30;;;;;;;;;;;;;;;26.45;28.38;101319.28;4127995;28;19969;-67
2023/05/12 07:53:32;;;;;;;;;;;;;;;26.43;28.29;101312.34;4118998;28;19928;-69
2023/05/12 07:55:33;;;;;;;;;;;;;;;26.42;28.48;101310.63;4128286;28;19922;-72
2023/05/12 07:57:35;;;;;;;;;;;;;;;26.38;28.89;101309.19;4119286;28;20016;-72
2023/05/12 07:59:36;;;;;;;;;;;;;;;26.34;28.88;101311.34;4130234;28;19922;-70
2023/05/12 08:01:38;;;;;;;;;;;;;;;26.31;28.80;101312.47;4118869;28;19922;-73
2023/05/12 08:03:40;;;;;;;;;;;;;;;26.27;29.28;101307.50;4126375;28;19957;-70
2023/05/12 08:05:41;;;;;;;;;;;;;;;26.26;28.73;101303.97;4129102;28;19932;-63
2023/05/12 08:07:43;;;;;;;;;;;;;;;26.26;29.21;101311.19;4117964;28;19922;-66
2023/05/12 08:09:45;;;;;;;;;;;;;;;26.25;29.61;101307.66;4121873;28;19926;-72
2023/05/12 08:11:48;;;;;;;;;;;;;;;26.23;29.24;101314.19;4116789;28;20372;-68
2023/05/12 08:13:52;;;;;;;;;;;;;;;26.23;29.23;101315.03;4125505;28;19928;-72
2023/05/12 08:15:53;;;;;;;;;;;;;;;26.23;29.34;101311.50;4119506;28;20442;-74
2023/05/12 08:17:55;;;;;;;;;;;;;;;26.18;29.22;101314.63;4116755;28;20041;-70
2023/05/12 08:19:57;;;;;;;;;;;;;;;26.13;29.60;101317.72;4122163;28;19958;-68
2023/05/12 08:21:58;;;;;;;;;;;;;;;26.14;29.83;101316.75;4118879;28;20016;-74
2023/05/12 08:23:59;;;;;;;;;;;;;;;26.11;29.96;101317.03;4125549;28;19925;-69
2023/05/12 08:26:01;;;;;;;;;;;;;;;26.09;29.73;101319.03;4129662;28;19921;-75
2023/05/12 08:28:03;;;;;;;;;;;;;;;26.04;29.74;101315.88;4125459;28;19950;-66
2023/05/12 08:30:05;;;;;;;;;;;;;;;26.00;30.13;101319.81;4128803;28;20048;-68
2023/05/12 08:32:06;;;;;;;;;;;;;;;25.97;30.36;101320.13;4131224;28;19925;-65
2023/05/12 08:34:08;;;;;;;;;;;;;;;25.95;30.17;101327.50;4121958;28;19973;-65
2023/05/12 08:36:11;;;;;;;;;;;;;;;25.95;29.98;101330.19;4129726;28;20434;-64
2023/05/12 08:38:13;;;;;;;;;;;;;;;25.86;30.48;101326.50;4128331;28;19922;-71
2023/05/12 08:40:19;;;;;;;;;;;;;;;25.82;30.47;101335.84;4123734;28;20247;-63
2023/05/12 08:42:23;;;;;;;;;;;;;;;25.81;30.54;101326.91;4127644;28;19922;-61
2023/05/12 08:44:25;;;;;;;;;;;;;;;25.76;30.85;101334.56;4125611;28;19929;-64
2023/05/12 08:46:27;;;;;;;;;;;;;;;25.73;30.85;101342.06;4128815;28;19925;-64
2023/05/12 08:48:30;;;;;;;;;;;;;;;25.72;31.57;101334.97;4131444;28;19980;-64
2023/05/12 08:50:34;;;;;;;;;;;;;;;25.67;30.88;101330.84;4120952;28;20044;-63
2023/05/12 08:52:35;;;;;;;;;;;;;;;25.64;30.96;101341.06;4100555;29;19926;-65
2023/05/12 08:54:39;;;;;;;;;;;;;;;25.60;31.40;101336.94;4117328;28;20414;-68
2023/05/12 08:56:56;;;;;;;;;;;;;;;25.60;32.59;101336.94;4117439;28;20025;-65
2023/05/12 08:59:01;;;;;;;;;;;;;;;25.61;31.98;101339.47;4117791;28;19966;-66
2023/05/12 09:01:03;;;;;;;;;;;;;;;25.62;31.96;101340.34;4125175;28;19922;-64
2023/05/12 09:03:06;;;;;;;;;;;;;;;25.63;32.68;101332.13;4132732;28;20383;-64
2023/05/12 09:05:08;;;;;;;;;;;;;;;25.62;32.23;101337.66;4125688;28;20388;-65
2023/05/12 09:07:10;;;;;;;;;;;;;;;25.62;31.91;101335.81;4122275;28;19984;-63
2023/05/12 09:09:13;;;;;;;;;;;;;;;25.62;32.15;101343.03;4104361;28;19936;-68
2023/05/12 09:11:15;;;;;;;;;;;;;;;25.58;32.53;101339.78;4125655;28;19922;-67
2023/05/12 09:13:22;;;;;;;;;;;;;;;25.58;32.40;101350.53;4121027;28;20371;-67
2023/05/12 09:15:30;;;;;;;;;;;;;;;25.56;32.30;101347.13;4122661;28;19976;-64
2023/05/12 09:17:31;;;;;;;;;;;;;;;25.57;32.82;101342.59;4111281;28;19949;-65
2023/05/12 09:19:33;;;;;;;;;;;;;;;25.58;33.23;101349.69;4130862;28;19930;-67
2023/05/12 09:21:36;;;;;;;;;;;;;;;25.56;32.92;101346.28;4127378;28;20407;-67
2023/05/12 09:23:37;;;;;;;;;;;;;;;25.56;33.13;101349.81;4115589;28;19929;-64
2023/05/12 09:25:39;;;;;;;;;;;;;;;25.56;33.20;101341.75;4122589;28;20331;-60
2023/05/12 09:27:40;;;;;;;;;;;;;;;25.52;32.93;101343.84;4122318;28;20371;-64
2023/05/12 09:29:48;;;;;;;;;;;;;;;25.54;33.70;101340.19;4115781;28;20360;-69
2023/05/12 09:32:01;;;;;;;;;;;;;;;25.51;33.63;101347.53;4118339;28;19925;-66
2023/05/12 09:34:07;;;;;;;;;;;;;;;25.50;34.11;101345.00;4123536;28;19937;-69
2023/05/12 09:36:08;;;;;;;;;;;;;;;25.51;33.87;101350.22;4125487;28;19921;-62
2023/05/12 09:38:11;;;;;;;;;;;;;;;25.49;33.86;101341.47;4123543;28;19946;-73
2023/05/12 09:40:14;;;;;;;;;;;;;;;25.47;33.90;101343.41;4119501;28;19922;-68
2023/05/12 09:42:16;;;;;;;;;;;;;;;25.46;34.41;101347.09;4126235;28;19926;-71
2023/05/12 09:44:18;;;;;;;;;;;;;;;25.47;34.16;101342.56;4106816;28;20319;-64
2023/05/12 09:46:19;;;;;;;;;;;;;;;25.47;34.64;101340.72;4117049;28;20372;-66
2023/05/12 09:48:21;;;;;;;;;;;;;;;25.50;34.11;101342.28;4119723;28;20439;-63
2023/05/12 09:50:23;;;;;;;;;;;;;;;25.51;34.46;101341.31;4115991;28;20419;-66
2023/05/12 09:52:31;;;;;;;;;;;;;;;25.52;34.28;101340.31;4123188;28;19922;-71
2023/05/12 09:54:33;;;;;;;;;;;;;;;25.52;34.64;101348.41;4115506;28;20255;-68
2023/05/12 09:56:36;;;;;;;;;;;;;;;25.53;34.17;101344.72;4121375;28;19922;-76
2023/05/12 09:58:40;;;;;;;;;;;;;;;25.56;34.80;101340.91;4121588;28;19957;-61
2023/05/12 10:00:42;;;;;;;;;;;;;;;25.58;34.55;101344.28;4111690;28;19922;-72
2023/05/12 10:03:14;;;;;;;;;;;;;;;25.58;34.26;101337.06;4125269;28;20272;-64
2023/05/12 10:05:19;;;;;;;;;;;;;;;25.56;34.22;101338.22;4103320;28;19925;-70
2023/05/12 10:07:26;;;;;;;;;;;;;;;25.58;34.80;101337.06;4124646;28;20334;-62
2023/05/12 10:09:30;;;;;;;;;;;;;;;25.57;34.83;101332.69;4107981;28;19930;-66
2023/05/12 10:11:33;;;;;;;;;;;;;;;25.55;34.50;101340.03;4111479;28;19922;-66
2023/05/12 10:13:35;;;;;;;;;;;;;;;25.58;34.48;101337.06;4125435;28;20290;-64
2023/05/12 10:15:37;;;;;;;;;;;;;;;25.55;34.58;101336.50;4121708;28;19921;-68
2023/05/12 10:17:41;;;;;;;;;;;;;;;25.50;34.65;101339.59;4126804;28;20302;-65
2023/05/12 10:19:43;;;;;;;;;;;;;;;25.47;34.67;101342.56;4117778;28;20017;-65
2023/05/12 10:21:45;;;;;;;;;;;;;;;25.44;34.30;101342.84;4114663;28;20028;-68
2023/05/12 10:23:47;;;;;;;;;;;;;;;25.43;34.18;101341.13;4128893;28;20052;-66
2023/05/12 10:25:48;;;;;;;;;;;;;;;25.41;34.52;101330.50;4120336;28;19934;-74